createdAt,value
2022-12-01T00:02:08.899Z,18.27
2022-12-01T00:05:12.045Z,21.87
2022-12-01T00:08:14.875Z,22.98
2022-12-01T00:11:17.880Z,20.85
2022-12-01T00:14:20.361Z,22.23
2022-12-01T00:17:23.439Z,19.42
2022-12-01T00:20:26.133Z,21.40
2022-12-01T00:23:29.204Z,18.60
2022-12-01T00:26:31.678Z,18.90
2022-12-01T00:29:34.701Z,19.80
2022-12-01T00:32:37.668Z,22.02
2022-12-01T00:35:40.716Z,25.33
2022-12-01T00:38:43.258Z,21.10
2022-12-01T00:41:46.280Z,17.73
2022-12-01T00:44:48.962Z,20.50
2022-12-01T00:47:51.990Z,16.85
2022-12-01T00:50:55.991Z,20.50
2022-12-01T00:53:59.337Z,23.62
2022-12-01T00:57:01.822Z,20.40
2022-12-01T01:00:05.953Z,23.75
2022-12-01T01:03:08.903Z,25.30
2022-12-01T01:09:15.940Z,20.60
2022-12-01T01:12:18.950Z,21.67
2022-12-01T01:15:21.864Z,20.92
2022-12-01T01:21:27.940Z,19.70
2022-12-01T01:24:30.998Z,20.77
2022-12-01T01:27:34.811Z,18.35
2022-12-01T01:30:40.384Z,18.30
2022-12-01T01:33:43.564Z,20.52
2022-12-01T01:36:46.636Z,18.83
2022-12-01T01:39:49.300Z,19.33
2022-12-01T01:42:52.532Z,23.80
2022-12-01T01:45:55.028Z,21.20
2022-12-01T01:49:01.997Z,23.25
2022-12-01T01:52:04.970Z,21.80
2022-12-01T01:55:10.124Z,23.23
2022-12-01T01:58:12.751Z,23.70
2022-12-01T02:01:16.282Z,24.48
2022-12-01T02:04:20.615Z,23.10
2022-12-01T02:07:23.421Z,24.12
2022-12-01T02:10:40.299Z,22.05
2022-12-01T02:13:55.361Z,23.80
2022-12-01T02:17:29.205Z,20.05
2022-12-01T02:20:53.258Z,22.48
2022-12-01T02:24:08.863Z,21.42
2022-12-01T02:27:31.549Z,21.85
2022-12-01T02:30:40.648Z,20.62
2022-12-01T02:34:18.691Z,23.27
2022-12-01T02:37:33.257Z,24.40
2022-12-01T02:40:53.027Z,20.15
2022-12-01T02:44:20.690Z,21.15
2022-12-01T02:47:23.890Z,21.83
2022-12-01T02:50:29.634Z,22.10
2022-12-01T02:53:32.491Z,19.60
2022-12-01T02:56:35.273Z,22.83
2022-12-01T02:59:38.241Z,24.55
2022-12-01T03:02:55.560Z,24.65
2022-12-01T03:05:58.390Z,26.17
2022-12-01T03:09:09.281Z,21.65
2022-12-01T03:12:35.601Z,21.23
2022-12-01T03:15:41.084Z,23.65
2022-12-01T03:19:13.652Z,22.45
2022-12-01T03:22:36.534Z,23.73
2022-12-01T03:25:45.729Z,22.62
2022-12-01T03:28:56.995Z,19.98
2022-12-01T03:32:04.933Z,24.90
2022-12-01T03:35:14.525Z,21.87
2022-12-01T03:38:29.251Z,22.65
2022-12-01T03:41:50.625Z,22.17
2022-12-01T03:45:00.919Z,29.37
2022-12-01T03:48:03.941Z,31.15
2022-12-01T03:51:18.048Z,25.80
2022-12-01T03:54:45.375Z,20.50
2022-12-01T03:58:00.441Z,21.60
2022-12-01T04:01:04.656Z,24.98
2022-12-01T04:04:11.824Z,23.45
2022-12-01T04:07:14.870Z,21.65
2022-12-01T04:10:18.216Z,21.08
2022-12-01T04:13:23.500Z,19.90
2022-12-01T04:16:26.612Z,23.15
2022-12-01T04:19:29.180Z,21.77
2022-12-01T04:22:33.214Z,25.05
2022-12-01T04:28:38.745Z,23.62
2022-12-01T04:31:41.870Z,20.90
2022-12-01T04:37:47.317Z,22.37
2022-12-01T04:40:50.351Z,41.65
2022-12-01T04:43:54.655Z,26.17
2022-12-01T04:46:57.827Z,20.67
2022-12-01T04:50:00.604Z,17.62
2022-12-01T04:53:04.646Z,24.27
2022-12-01T04:59:10.410Z,19.23
2022-12-01T05:02:12.940Z,20.80
2022-12-01T05:05:16.219Z,20.70
2022-12-01T05:08:18.723Z,20.50
2022-12-01T05:11:22.359Z,22.73
2022-12-01T05:14:24.971Z,22.08
2022-12-01T05:17:35.516Z,20.80
2022-12-01T05:20:57.617Z,18.92
2022-12-01T05:24:00.627Z,23.67
2022-12-01T05:27:03.143Z,22.02
2022-12-01T05:30:06.845Z,23.45
2022-12-01T05:33:09.278Z,22.05
2022-12-01T05:36:12.330Z,22.35
2022-12-01T05:39:14.872Z,23.27
2022-12-01T05:42:17.917Z,22.42
2022-12-01T05:45:20.394Z,26.27
2022-12-01T05:48:23.615Z,25.00
2022-12-01T05:51:26.121Z,24.53
2022-12-01T05:54:30.459Z,25.62
2022-12-01T05:57:33.838Z,24.95
2022-12-01T06:00:43.875Z,24.65
2022-12-01T06:03:48.401Z,22.92
2022-12-01T06:06:51.390Z,28.83
2022-12-01T06:09:54.493Z,28.25
2022-12-01T06:12:57.232Z,26.80
2022-12-01T06:16:03.026Z,27.13
2022-12-01T06:19:05.807Z,27.48
2022-12-01T06:22:08.524Z,32.05
2022-12-01T06:25:11.528Z,30.10
2022-12-01T06:28:14.665Z,28.75
2022-12-01T06:31:17.481Z,33.63
2022-12-01T06:34:20.266Z,31.02
2022-12-01T06:37:23.074Z,32.72
2022-12-01T06:40:26.175Z,32.67
2022-12-01T06:43:29.739Z,34.88
2022-12-01T06:46:32.882Z,32.17
2022-12-01T06:49:37.986Z,34.63
2022-12-01T06:52:40.710Z,32.53
2022-12-01T06:55:43.460Z,34.17
2022-12-01T06:58:46.590Z,33.22
2022-12-01T07:01:49.669Z,38.20
2022-12-01T07:04:52.564Z,35.75
2022-12-01T07:07:59.490Z,38.40
2022-12-01T07:11:08.955Z,38.28
2022-12-01T07:14:26.757Z,33.33
2022-12-01T07:17:30.387Z,31.05
2022-12-01T07:20:33.142Z,28.75
2022-12-01T07:23:36.540Z,33.28
2022-12-01T07:26:41.172Z,32.67
2022-12-01T07:29:44.080Z,34.70
2022-12-01T07:32:46.827Z,34.55
2022-12-01T07:35:49.632Z,32.25
2022-12-01T07:38:52.341Z,32.38
2022-12-01T07:41:55.254Z,32.55
2022-12-01T07:44:58.021Z,29.52
2022-12-01T07:48:00.827Z,31.83
2022-12-01T07:51:07.950Z,36.00
2022-12-01T07:54:14.299Z,29.37
2022-12-01T07:57:18.245Z,33.42
2022-12-01T08:00:21.422Z,31.12
2022-12-01T08:06:29.044Z,32.45
2022-12-01T08:09:34.671Z,35.70
2022-12-01T08:12:37.388Z,32.88
2022-12-01T08:15:40.509Z,30.48
2022-12-01T08:18:43.811Z,37.00
2022-12-01T08:21:46.996Z,31.27
2022-12-01T08:24:49.491Z,30.03
2022-12-01T08:27:52.587Z,30.90
2022-12-01T08:30:55.363Z,28.15
2022-12-01T08:37:00.831Z,23.85
2022-12-01T08:43:06.548Z,30.42
2022-12-01T08:49:12.319Z,28.35
2022-12-01T08:52:15.463Z,26.87
2022-12-01T08:55:18.929Z,25.40
2022-12-01T08:58:22.025Z,25.73
2022-12-01T09:01:25.976Z,27.60
2022-12-01T09:04:29.464Z,25.00
2022-12-01T09:07:33.149Z,27.98
2022-12-01T09:10:36.254Z,25.00
2022-12-01T09:13:40.139Z,25.27
2022-12-01T09:16:44.897Z,26.27
2022-12-01T09:19:47.752Z,28.67
2022-12-01T09:22:51.369Z,25.90
2022-12-01T09:25:53.952Z,24.08
2022-12-01T09:28:59.938Z,28.50
2022-12-01T09:32:02.732Z,24.58
2022-12-01T09:35:05.917Z,24.00
2022-12-01T09:38:08.546Z,34.70
2022-12-01T09:41:19.166Z,24.25
2022-12-01T09:44:30.692Z,25.35
2022-12-01T09:47:37.611Z,26.43
2022-12-01T09:50:40.519Z,21.55
2022-12-01T09:53:45.010Z,22.17
2022-12-01T09:56:53.139Z,22.33
2022-12-01T09:59:58.207Z,19.17
2022-12-01T10:03:22.023Z,20.15
2022-12-01T10:06:35.433Z,20.08
2022-12-01T10:09:43.106Z,16.42
2022-12-01T10:12:48.607Z,19.62
2022-12-01T10:15:54.088Z,16.48
2022-12-01T10:19:08.927Z,18.10
2022-12-01T10:22:44.384Z,19.33
2022-12-01T10:25:59.961Z,18.25
2022-12-01T10:29:45.065Z,18.52
2022-12-01T10:32:56.261Z,17.60
2022-12-01T10:35:58.990Z,17.65
2022-12-01T10:39:06.787Z,18.10
2022-12-01T10:42:39.736Z,15.73
2022-12-01T10:45:45.026Z,15.90
2022-12-01T10:48:56.593Z,16.05
2022-12-01T10:51:59.909Z,17.58
2022-12-01T10:55:04.998Z,16.58
2022-12-01T10:58:19.281Z,19.65
2022-12-01T11:01:39.753Z,16.15
2022-12-01T11:04:46.626Z,16.60
2022-12-01T11:07:49.923Z,17.42
2022-12-01T11:10:53.091Z,19.95
2022-12-01T11:13:58.137Z,16.55
2022-12-01T11:17:33.675Z,17.27
2022-12-01T11:20:41.059Z,19.98
2022-12-01T11:23:49.242Z,18.00
2022-12-01T11:26:51.857Z,16.15
2022-12-01T11:29:57.720Z,17.52
2022-12-01T11:33:03.362Z,15.68
2022-12-01T11:36:11.825Z,20.80
2022-12-01T11:39:34.189Z,19.80
2022-12-01T11:42:40.304Z,19.33
2022-12-01T11:45:45.037Z,17.73
2022-12-01T11:48:58.532Z,20.75
2022-12-01T11:52:24.344Z,17.50
2022-12-01T11:55:29.764Z,17.33
2022-12-01T11:58:32.305Z,18.25
2022-12-01T12:02:03.128Z,19.48
2022-12-01T12:05:37.648Z,16.98
2022-12-01T12:09:13.177Z,17.20
2022-12-01T12:12:21.925Z,16.02
2022-12-01T12:19:00.323Z,17.92
2022-12-01T12:22:18.103Z,16.85
2022-12-01T12:25:53.036Z,17.08
2022-12-01T12:29:43.807Z,16.37
2022-12-01T12:33:12.599Z,16.92
2022-12-01T12:36:46.290Z,16.02
2022-12-01T12:39:49.378Z,16.42
2022-12-01T12:43:14.304Z,16.52
2022-12-01T12:46:27.587Z,15.52
2022-12-01T12:49:54.891Z,16.95
2022-12-01T12:53:04.682Z,16.37
2022-12-01T12:56:12.526Z,20.85
2022-12-01T12:59:31.713Z,19.55
2022-12-01T13:02:38.409Z,22.48
2022-12-01T13:05:45.129Z,15.80
2022-12-01T13:09:10.358Z,21.75
2022-12-01T13:12:20.007Z,18.45
2022-12-01T13:15:23.117Z,20.27
2022-12-01T13:21:37.372Z,18.37
2022-12-01T13:24:41.095Z,19.20
2022-12-01T13:27:45.734Z,18.23
2022-12-01T13:31:05.848Z,17.77
2022-12-01T13:34:20.834Z,18.37
2022-12-01T13:37:38.788Z,19.45
2022-12-01T13:40:41.652Z,18.58
2022-12-01T13:43:56.733Z,19.08
2022-12-01T13:47:05.315Z,18.10
2022-12-01T13:50:39.192Z,16.15
2022-12-01T13:54:27.030Z,17.17
2022-12-01T13:57:32.535Z,19.08
2022-12-01T14:00:35.593Z,18.98
2022-12-01T14:03:40.728Z,22.77
2022-12-01T14:06:50.159Z,16.52
2022-12-01T14:09:57.631Z,18.42
2022-12-01T14:13:06.015Z,14.18
2022-12-01T14:16:09.724Z,13.38
2022-12-01T14:19:30.382Z,13.43
2022-12-01T14:22:37.576Z,13.93
2022-12-01T14:25:41.530Z,14.73
2022-12-01T14:28:59.776Z,15.13
2022-12-01T14:32:04.404Z,14.40
2022-12-01T14:35:11.977Z,17.25
2022-12-01T14:38:15.217Z,15.60
2022-12-01T14:41:25.988Z,15.82
2022-12-01T14:44:33.355Z,15.88
2022-12-01T14:47:46.799Z,15.15
2022-12-01T14:50:53.538Z,16.10
2022-12-01T14:53:58.603Z,16.58
2022-12-01T14:57:06.901Z,16.65
2022-12-01T15:00:21.766Z,15.73
2022-12-01T15:03:30.509Z,12.10
2022-12-01T15:06:36.646Z,14.73
2022-12-01T15:09:58.905Z,17.65
2022-12-01T15:13:24.844Z,16.25
2022-12-01T15:16:32.786Z,19.35
2022-12-01T15:19:41.255Z,16.73
2022-12-01T15:22:44.112Z,19.10
2022-12-01T15:25:46.987Z,14.18
2022-12-01T15:28:50.554Z,16.20
2022-12-01T15:31:57.015Z,18.10
2022-12-01T15:35:05.429Z,15.82
2022-12-01T15:38:20.895Z,17.37
2022-12-01T15:41:29.335Z,17.85
2022-12-01T15:44:36.322Z,16.92
2022-12-01T15:47:45.583Z,17.08
2022-12-01T15:51:01.143Z,15.48
2022-12-01T15:54:04.179Z,17.12
2022-12-01T15:57:07.315Z,16.62
2022-12-01T16:00:19.985Z,17.52
2022-12-01T16:03:22.862Z,17.48
2022-12-01T16:06:39.359Z,15.80
2022-12-01T16:10:00.269Z,17.52
2022-12-01T16:13:40.424Z,24.98
2022-12-01T16:16:47.274Z,19.12
2022-12-01T16:20:24.364Z,21.12
2022-12-01T16:23:27.261Z,23.08
2022-12-01T16:26:31.806Z,21.05
2022-12-01T16:29:48.123Z,19.98
2022-12-01T16:32:51.486Z,21.52
2022-12-01T16:35:54.556Z,21.30
2022-12-01T16:38:57.420Z,21.10
2022-12-01T16:42:00.828Z,20.10
2022-12-01T16:45:04.264Z,19.60
2022-12-01T16:48:09.418Z,18.30
2022-12-01T16:51:14.586Z,22.92
2022-12-01T16:54:17.491Z,19.62
2022-12-01T16:57:20.216Z,18.92
2022-12-01T17:00:23.522Z,15.95
2022-12-01T17:06:30.095Z,19.37
2022-12-01T17:09:33.101Z,19.65
2022-12-01T17:12:36.238Z,19.70
2022-12-01T17:15:43.278Z,22.33
2022-12-01T17:18:46.111Z,22.10
2022-12-01T17:21:48.936Z,19.20
2022-12-01T17:24:52.009Z,20.10
2022-12-01T17:27:55.398Z,22.62
2022-12-01T17:34:04.725Z,21.35
2022-12-01T17:37:08.072Z,19.35
2022-12-01T17:40:14.772Z,23.83
2022-12-01T17:43:17.609Z,22.77
2022-12-01T17:46:20.493Z,22.70
2022-12-01T17:49:23.267Z,25.12
2022-12-01T17:52:28.555Z,23.73
2022-12-01T17:55:31.486Z,29.58
2022-12-01T17:58:34.553Z,31.50
2022-12-01T18:01:37.565Z,32.55
2022-12-01T18:04:40.858Z,32.83
2022-12-01T18:07:43.439Z,30.48
2022-12-01T18:10:46.546Z,30.33
2022-12-01T18:13:50.717Z,34.50
2022-12-01T18:16:54.979Z,28.38
2022-12-01T18:19:57.487Z,32.95
2022-12-01T18:23:00.577Z,30.75
2022-12-01T18:26:15.180Z,35.37
2022-12-01T18:29:26.017Z,32.75
2022-12-01T18:32:28.835Z,31.52
2022-12-01T18:35:32.211Z,33.95
2022-12-01T18:38:34.806Z,32.13
2022-12-01T18:41:38.474Z,35.80
2022-12-01T18:44:42.398Z,34.25
2022-12-01T18:47:45.746Z,32.22
2022-12-01T18:50:48.642Z,34.33
2022-12-01T18:54:00.737Z,31.98
2022-12-01T18:57:03.664Z,33.03
2022-12-01T19:00:08.086Z,37.47
2022-12-01T19:03:10.657Z,39.08
2022-12-01T19:06:13.876Z,34.15
2022-12-01T19:09:16.620Z,37.80
2022-12-01T19:12:19.668Z,39.83
2022-12-01T19:15:22.797Z,36.97
2022-12-01T19:18:25.931Z,37.10
2022-12-01T19:21:29.587Z,37.33
2022-12-01T19:24:32.884Z,33.55
2022-12-01T19:27:35.427Z,36.83
2022-12-01T19:30:41.819Z,39.47
2022-12-01T19:33:47.255Z,37.22
2022-12-01T19:36:53.926Z,34.20
2022-12-01T19:39:56.490Z,35.50
2022-12-01T19:42:59.611Z,37.05
2022-12-01T19:46:11.505Z,39.97
2022-12-01T19:49:14.740Z,36.70
2022-12-01T19:52:17.345Z,40.53
2022-12-01T19:55:20.498Z,32.60
2022-12-01T19:58:24.947Z,35.57
2022-12-01T20:01:28.773Z,39.20
2022-12-01T20:04:32.000Z,37.25
2022-12-01T20:07:35.402Z,44.22
2022-12-01T20:13:43.151Z,38.65
2022-12-01T20:16:45.975Z,39.10
2022-12-01T20:19:48.824Z,40.38
2022-12-01T20:22:51.562Z,43.03
2022-12-01T20:25:54.560Z,66.78
2022-12-01T20:29:01.395Z,42.62
2022-12-01T20:32:04.779Z,43.55
2022-12-01T20:35:07.853Z,42.83
2022-12-01T20:38:11.966Z,42.92
2022-12-01T20:41:18.680Z,39.20
2022-12-01T20:44:21.897Z,35.90
2022-12-01T20:47:24.850Z,31.23
2022-12-01T20:50:27.678Z,32.20
2022-12-01T20:53:30.800Z,33.47
2022-12-01T20:56:36.561Z,38.70
2022-12-01T20:59:39.407Z,34.65
2022-12-01T21:02:43.746Z,34.83
2022-12-01T21:05:46.640Z,33.85
2022-12-01T21:08:50.418Z,31.40
2022-12-01T21:12:20.906Z,33.38
2022-12-01T21:15:29.839Z,33.17
2022-12-01T21:18:49.861Z,37.72
2022-12-01T21:21:52.701Z,35.88
2022-12-01T21:25:11.373Z,31.08
2022-12-01T21:28:23.737Z,32.05
2022-12-01T21:31:27.183Z,32.30
2022-12-01T21:37:32.688Z,36.90
2022-12-01T21:40:35.687Z,37.92
2022-12-01T21:43:38.800Z,35.65
2022-12-01T21:46:42.500Z,40.83
2022-12-01T21:49:45.849Z,42.53
2022-12-01T21:52:49.286Z,41.08
2022-12-01T21:59:06.723Z,40.25
2022-12-01T22:02:31.084Z,39.60
2022-12-01T22:05:41.565Z,36.75
2022-12-01T22:08:46.681Z,35.45
2022-12-01T22:11:53.936Z,37.50
2022-12-01T22:15:01.992Z,35.05
2022-12-01T22:18:19.823Z,35.95
2022-12-01T22:21:22.331Z,31.42
2022-12-01T22:24:53.268Z,32.03
2022-12-01T22:28:00.046Z,36.63
2022-12-01T22:31:11.809Z,38.83
2022-12-01T22:34:16.626Z,31.20
2022-12-01T22:37:22.604Z,34.28
2022-12-01T22:40:28.170Z,34.83
2022-12-01T22:43:44.835Z,33.78
2022-12-01T22:46:47.999Z,31.37
2022-12-01T22:49:51.329Z,32.58
2022-12-01T22:52:59.246Z,39.33
2022-12-01T22:56:07.745Z,30.40
2022-12-01T22:59:22.224Z,33.10
2022-12-01T23:02:33.147Z,32.53
2022-12-01T23:05:35.899Z,31.23
2022-12-01T23:08:39.001Z,30.65
2022-12-01T23:11:49.435Z,32.63
2022-12-01T23:14:56.529Z,28.92
2022-12-01T23:18:20.188Z,35.88
2022-12-01T23:21:24.364Z,28.23
2022-12-01T23:24:29.740Z,32.67
2022-12-01T23:27:37.635Z,31.17
2022-12-01T23:33:44.233Z,29.40
2022-12-01T23:36:50.071Z,32.23
2022-12-01T23:39:56.317Z,29.58
2022-12-01T23:43:10.126Z,28.83
2022-12-01T23:46:19.114Z,28.08
2022-12-01T23:49:30.035Z,25.90
2022-12-01T23:52:36.554Z,30.80
2022-12-01T23:55:39.578Z,34.78
2022-12-01T23:58:44.680Z,30.88
